Yangon, Myanmar

10:35 AM MMT on June 02, 2015 (GMT +0630)
Golden Valley | | Change Station
CLOSE
Current Station
Personal Weather Station
Location: Yangon, YANGON REGION
Elevation: 105 ft
Nearby Weather Stations

Elev 105 ft 16.82 °N, 96.14 °E | Updated 33 seconds ago

Mostly Cloudy
Mostly Cloudy
91.9 °F
Feels Like 107 °F
N
1.1
Wind Variable Wind from NW
Gusts 2.5 mph

Today
High -- | Low -- °F
--% Chance of Precip.
Yesterday
High -- | Low -- °F
Precip. -- in
5:31 AM 6:35 PM
Full, 100% visible
Pressure 29.83 in
Visibility 4.3 miles
Clouds Mostly Cloudy 1600 ft
Few 2000 ft
Mostly Cloudy 10000 ft
Heat Index 107 °F
Dew Point 78 °F
Humidity 64%
Rainfall 0.00 in
Snow Depth Not available.
UV 3.0 out of 12
Pollen Not available.
Air Quality Not available.
Flu Activity Not available.
METAR VYYY 020330Z 29003KT 7000 BKN016 FEW020CB BKN100 29/26 Q1010

More Conditions Fewer Conditions

Pressure 29.83 in
Visibility 4.3 miles
Clouds Mostly Cloudy 1600 ft
Few 2000 ft
Mostly Cloudy 10000 ft
Heat Index 107 °F
Dew Point 78 °F
Humidity 64%
Rainfall 0.00 in
Snow Depth Not available.
UV 3.0 out of 12
Pollen Not available.
Air Quality Not available.
Flu Activity Not available.
METAR VYYY 020330Z 29003KT 7000 BKN016 FEW020CB BKN100 29/26 Q1010

More Conditions Fewer Conditions

10-Day Weather Forecast

Almanac

Astronomy

Jun. 02, 2015 Rise Set
Actual Time
Civil Twilight
Nautical Twilight
Astronomical Twilight
Moon
Length of Visible Light
Length of Day
Tomorrow will be .
, % of the Moon is Illuminated

Today's Extremes

Country Highs Country Lows

Community

WunderPhotos

Upload Photos

1,825,891 photos uploaded!

WunderBlogs® & News

Nearby

Air Quality

  Air Quality AQ Index Pollutant
Not available.

Snow Depth

Station Depth Elevation

Earthquake Activity

City Distance Mag. Time & Date
Minimum magnitude displayed is 2.5.

Coastal Water Temperatures

Place Temperature

Stations

Nearby Weather Stations

Station Location Temp. Windchill Dew Point Humidity Wind Precip. Elev Updated Type